Time;durP1;ratioP1;P1;durP2;ratioP2;P2;SDS_P1;SDS_P2;PMS_P1;PMS_P2;Temp;Humidity;BMP_temperature;BMP_pressure;BME280_temperature;BME280_humidity;BME280_pressure;Samples;Min_cycle;Max_cycle;Signal;HPM_P1;HPM_P2
2022/05/27 00:01:20;;;;;;;3.53;2.20;;;17.90;99.90;;;-141.84;52.46;19192.00;5073759;28;20177;-53
2022/05/27 00:03:49;;;;;;;2.30;1.67;;;17.80;99.90;;;-141.84;52.63;19181.81;5073286;28;20573;-52
2022/05/27 00:06:17;;;;;;;2.80;2.17;;;17.80;99.90;;;-141.84;52.21;19206.22;5072965;28;20653;-54
2022/05/27 00:08:45;;;;;;;4.65;2.05;;;17.80;99.90;;;-141.84;52.26;19214.34;5073122;28;20220;-53
2022/05/27 00:11:16;;;;;;;2.97;1.98;;;17.80;99.90;;;-141.84;51.99;19177.75;5073764;28;20217;-55
2022/05/27 00:13:44;;;;;;;3.83;2.78;;;17.90;99.90;;;-141.84;52.63;19192.00;5073724;28;20196;-54
2022/05/27 00:16:13;;;;;;;5.35;3.80;;;17.80;99.90;;;-141.84;52.19;19159.47;5073153;28;20616;-54
2022/05/27 00:18:41;;;;;;;8.30;5.50;;;17.80;99.90;;;-141.84;52.14;19208.25;5073323;28;20206;-53
2022/05/27 00:21:10;;;;;;;6.68;5.40;;;17.80;99.90;;;-141.84;52.77;19167.59;5072816;28;20299;-54
2022/05/27 00:23:39;;;;;;;8.13;6.32;;;17.80;99.90;;;-141.84;51.83;19163.53;5073280;28;20288;-56
2022/05/27 00:26:07;;;;;;;9.18;7.78;;;17.80;99.90;;;-141.84;51.88;19230.59;5072967;28;20239;-55
2022/05/27 00:28:37;;;;;;;10.75;8.52;;;17.90;99.90;;;-141.84;52.30;19192.00;5073468;28;20373;-56
2022/05/27 00:31:06;;;;;;;10.45;8.00;;;17.80;99.90;;;-141.84;52.14;19181.81;5072822;28;20667;-53
2022/05/27 00:33:35;;;;;;;12.13;8.10;;;17.90;99.90;;;-141.84;51.90;19189.97;5072616;28;20633;-51
2022/05/27 00:36:08;;;;;;;10.07;6.85;;;17.90;99.90;;;-141.84;52.45;19183.84;5072670;28;20193;-53
2022/05/27 00:38:37;;;;;;;11.75;7.60;;;17.80;99.90;;;-141.84;52.19;19185.88;5073039;28;20221;-55
2022/05/27 00:41:05;;;;;;;8.95;6.97;;;17.90;99.90;;;-141.84;52.18;19192.00;5072694;28;20676;-55
2022/05/27 00:43:34;;;;;;;9.23;6.40;;;17.90;99.90;;;-141.84;51.97;19163.53;5072937;28;20200;-55
2022/05/27 00:46:07;;;;;;;11.77;7.32;;;18.00;99.90;;;-141.84;52.19;19194.03;5073126;28;20236;-54
2022/05/27 00:48:39;;;;;;;10.68;6.50;;;17.90;99.90;;;-141.84;52.35;19204.19;5072676;28;20458;-51
2022/05/27 00:51:16;;;;;;;10.57;6.93;;;17.90;99.90;;;-141.84;52.53;19224.50;5072059;28;20271;-55
2022/05/27 00:53:52;;;;;;;9.50;6.68;;;17.90;99.90;;;-141.84;52.52;19194.03;5072319;28;20215;-55
2022/05/27 00:56:24;;;;;;;11.90;7.07;;;17.90;99.90;;;-141.84;52.42;19189.97;5072852;28;20185;-55
2022/05/27 00:58:59;;;;;;;10.30;6.75;;;17.90;99.90;;;-141.84;52.87;19200.13;5073029;28;20219;-52
2022/05/27 01:01:29;;;;;;;8.82;5.97;;;17.80;99.90;;;-141.84;53.41;19167.59;5072614;28;20195;-51
2022/05/27 01:04:01;;;;;;;8.98;5.38;;;17.80;99.90;;;-141.84;53.34;19183.84;5072435;28;20204;-53
2022/05/27 01:06:30;;;;;;;6.95;5.35;;;17.70;99.90;;;-141.84;53.08;19173.69;5071929;28;20795;-55
2022/05/27 01:08:58;;;;;;;6.70;4.30;;;17.80;99.90;;;-141.84;52.87;19167.59;5072185;28;20231;-55
2022/05/27 01:11:47;;;;;;;7.20;4.30;;;17.80;99.90;;;-141.84;52.89;19171.66;5071960;28;20304;-51
2022/05/27 01:14:28;;;;;;;6.70;3.28;;;17.80;99.90;;;-141.84;53.20;19159.47;5072247;28;20187;-54
2022/05/27 01:17:09;;;;;;;6.25;3.22;;;17.80;99.90;;;-141.84;53.59;19143.22;5072310;28;20185;-56
2022/05/27 01:20:22;;;;;;;4.85;2.75;;;17.70;99.90;;;-141.84;53.67;19139.16;5072110;28;20292;-53
2022/05/27 01:23:58;;;;;;;5.30;2.58;;;17.70;99.90;;;-141.84;53.82;19149.31;5071882;28;20228;-53
2022/05/27 01:27:29;;;;;;;3.72;2.28;;;17.70;99.90;;;-141.84;53.20;19145.25;5072173;28;20195;-56
2022/05/27 01:30:21;;;;;;;3.40;2.38;;;17.70;99.90;;;-141.84;54.22;19118.84;5071719;28;20299;-54
2022/05/27 01:33:05;;;;;;;2.80;2.20;;;17.70;99.90;;;-141.84;53.96;19143.22;5071937;28;20296;-53
2022/05/27 01:35:45;;;;;;;3.03;2.20;;;17.60;99.90;;;-141.84;53.96;19141.19;5071612;28;20188;-55
2022/05/27 01:38:20;;;;;;;2.95;2.13;;;17.70;99.90;;;-141.84;54.05;19131.03;5072307;28;20261;-53
2022/05/27 01:40:59;;;;;;;4.88;2.40;;;17.60;99.90;;;-141.84;54.57;19120.88;5071571;28;20307;-57
2022/05/27 01:43:40;;;;;;;4.35;2.25;;;17.60;99.90;;;-141.84;54.86;19104.59;5071434;28;20191;-54
2022/05/27 01:46:16;;;;;;;4.95;2.40;;;17.60;99.90;;;-141.84;54.96;19116.81;5071766;28;20272;-57
2022/05/27 01:48:59;;;;;;;2.78;2.30;;;17.50;99.90;;;-141.84;54.75;19126.97;5071731;28;20223;-57
2022/05/27 01:51:35;;;;;;;2.33;1.83;;;17.50;99.90;;;-141.84;54.59;19139.16;5071648;28;20181;-55
2022/05/27 01:54:09;;;;;;;2.78;2.35;;;17.60;99.90;;;-141.84;54.81;19112.75;5071526;28;20212;-54
2022/05/27 01:56:45;;;;;;;3.67;1.63;;;17.60;99.90;;;-141.84;55.18;19135.09;5071565;28;20280;-53
2022/05/27 01:59:21;;;;;;;2.53;2.00;;;17.60;99.90;;;-141.84;54.62;19110.72;5071561;28;20279;-52
2022/05/27 02:01:58;;;;;;;2.50;1.90;;;17.60;99.90;;;-141.84;54.55;19145.25;5071498;28;20188;-55
2022/05/27 02:04:36;;;;;;;3.03;1.70;;;17.60;99.90;;;-141.84;54.37;19143.22;5071104;28;20296;-55
2022/05/27 02:07:11;;;;;;;4.07;2.00;;;17.70;99.90;;;-141.84;54.36;19153.38;5071094;28;20664;-57
2022/05/27 02:09:45;;;;;;;4.07;2.00;;;17.70;99.90;;;-141.84;54.62;19153.38;5070805;28;20296;-56
2022/05/27 02:12:27;;;;;;;2.78;1.70;;;17.80;99.90;;;-141.84;54.83;19145.25;5071018;28;20280;-56
2022/05/27 02:15:02;;;;;;;3.40;2.00;;;17.80;99.90;;;-141.84;55.02;19126.97;5071407;28;20193;-51
2022/05/27 02:17:38;;;;;;;4.07;2.10;;;17.80;99.90;;;-141.84;55.47;19094.44;5071400;28;20618;-54
2022/05/27 02:20:12;;;;;;;2.53;1.70;;;17.70;99.90;;;-141.84;55.38;19080.22;5070686;28;20191;-56
2022/05/27 02:22:49;;;;;;;3.65;1.90;;;17.80;99.90;;;-141.84;55.87;19092.41;5070186;28;20188;-49
2022/05/27 02:25:24;;;;;;;3.30;2.00;;;17.70;99.90;;;-141.84;55.98;19131.03;5071069;28;20185;-54
2022/05/27 02:27:58;;;;;;;3.13;2.13;;;17.70;99.90;;;-141.84;55.39;19114.78;5070833;28;20555;-57
2022/05/27 02:30:32;;;;;;;3.38;1.85;;;17.70;99.90;;;-141.84;55.73;19139.16;5071026;28;20650;-54
2022/05/27 02:36:00;;;;;;;3.97;2.40;;;17.70;99.90;;;-141.84;55.03;19112.75;5070554;28;20276;-52
2022/05/27 02:38:29;;;;;;;3.30;2.17;;;17.80;99.90;;;-141.84;55.52;19092.41;5070630;28;20518;-53
2022/05/27 02:41:08;;;;;;;4.00;2.30;;;17.80;99.90;;;-141.84;55.80;19122.91;5070394;28;20208;-55
2022/05/27 02:44:03;;;;;;;4.40;2.30;;;17.70;99.90;;;-141.84;55.77;19108.69;5070852;28;20224;-56
2022/05/27 02:46:42;;;;;;;3.78;2.28;;;17.80;99.90;;;-141.84;56.23;19063.97;5070959;28;20204;-52
2022/05/27 02:49:23;;;;;;;4.10;2.25;;;17.70;99.90;;;-141.84;56.89;19068.03;5070447;28;20299;-54
2022/05/27 02:52:06;;;;;;;3.35;2.20;;;17.60;99.90;;;-141.84;57.05;19082.25;5070792;28;20211;-54
2022/05/27 02:54:47;;;;;;;4.95;2.58;;;17.60;99.90;;;-141.84;57.46;19011.13;5070674;28;20196;-55
2022/05/27 02:57:22;;;;;;;4.03;2.25;;;17.50;99.90;;;-141.84;57.77;19035.53;5070765;28;20268;-54
2022/05/27 02:59:53;;;;;;;3.00;1.75;;;17.50;99.90;;;-141.84;58.04;19033.50;5070462;28;20338;-55
2022/05/27 03:02:21;;;;;;;5.45;2.00;;;17.50;99.90;;;-141.84;57.62;19076.16;5070656;28;20214;-54
2022/05/27 03:04:58;;;;;;;3.38;1.90;;;17.50;99.90;;;-141.84;59.12;19031.47;5070233;28;20748;-55
2022/05/27 03:07:39;;;;;;;2.55;1.88;;;17.40;99.90;;;-141.84;59.77;18984.72;5070662;28;20191;-53
2022/05/27 03:10:27;;;;;;;3.78;2.10;;;17.30;99.90;;;-141.84;60.18;18956.28;5070653;28;20208;-53
2022/05/27 03:13:41;;;;;;;1.65;1.55;;;17.30;99.90;;;-141.84;60.61;18978.63;5070301;28;20276;-54
2022/05/27 03:16:22;;;;;;;4.15;1.88;;;17.20;99.90;;;-141.84;60.59;18964.41;5052084;28;20201;-55
2022/05/27 03:19:17;;;;;;;4.65;1.98;;;17.20;99.90;;;-141.84;60.12;18986.75;5070112;28;20196;-55
2022/05/27 03:22:04;;;;;;;2.55;1.50;;;17.30;99.90;;;-141.84;60.68;18962.38;5070464;28;20216;-54
2022/05/27 03:24:55;;;;;;;3.75;1.60;;;17.30;99.90;;;-141.84;61.66;18952.22;5070382;28;20506;-56
2022/05/27 03:27:40;;;;;;;2.45;1.65;;;17.20;99.90;;;-141.84;62.05;18948.16;5070172;28;20273;-53
2022/05/27 03:30:15;;;;;;;3.45;2.00;;;17.20;99.90;;;-141.84;62.03;18913.59;5070321;28;20285;-53
2022/05/27 03:32:52;;;;;;;2.45;1.98;;;17.10;99.90;;;-141.84;62.08;18952.22;5071068;28;20200;-53
2022/05/27 03:35:33;;;;;;;2.45;1.75;;;17.10;99.90;;;-141.84;62.26;18893.28;5074021;28;20300;-58
2022/05/27 03:38:12;;;;;;;2.97;1.90;;;17.10;99.90;;;-141.84;63.29;18907.50;5074380;28;20269;-51
2022/05/27 03:40:53;;;;;;;2.45;2.25;;;17.10;99.90;;;-141.84;63.03;18901.41;5073889;28;20292;-54
2022/05/27 03:43:22;;;;;;;2.25;1.58;;;17.10;99.90;;;-141.84;62.79;18958.31;5074136;28;20276;-51
2022/05/27 03:45:54;;;;;;;4.60;1.90;;;17.10;99.90;;;-141.84;63.35;18891.25;5073844;28;20215;-55
2022/05/27 03:48:25;;;;;;;2.58;1.75;;;17.00;99.90;;;-141.84;63.85;18885.16;5073657;28;20192;-56
2022/05/27 03:50:58;;;;;;;2.00;1.80;;;17.00;99.90;;;-141.84;64.18;18854.69;5074052;28;20270;-52
2022/05/27 03:56:09;;;;;;;3.20;2.00;;;17.00;99.90;;;-141.84;64.21;18905.47;5073491;28;20209;-55
2022/05/27 03:58:37;;;;;;;3.45;1.73;;;17.00;99.90;;;-141.84;65.02;18862.81;5074064;28;20562;-56
2022/05/27 04:01:05;;;;;;;3.60;1.92;;;16.90;99.90;;;-141.84;65.53;18870.94;5073773;28;20207;-54
2022/05/27 04:03:33;;;;;;;2.92;2.05;;;16.90;99.90;;;-141.84;65.44;18824.22;5073033;28;20664;-56
2022/05/27 04:06:01;;;;;;;3.80;1.83;;;16.90;99.90;;;-141.84;66.02;18820.16;5073840;28;20205;-53
2022/05/27 04:08:31;;;;;;;4.05;2.28;;;16.90;99.90;;;-141.84;66.25;18842.50;5073642;28;20200;-53
2022/05/27 04:10:59;;;;;;;2.40;2.00;;;16.90;99.90;;;-141.84;65.60;18850.63;5073401;28;20428;-55
2022/05/27 04:13:27;;;;;;;3.33;2.15;;;16.90;99.90;;;-141.84;66.84;18830.31;5073418;28;20612;-55
2022/05/27 04:15:54;;;;;;;3.15;2.50;;;16.90;99.90;;;-141.84;67.43;18807.94;5073853;28;20204;-54
2022/05/27 04:18:22;;;;;;;3.17;2.03;;;16.90;99.90;;;-141.84;68.41;18797.78;5073205;28;20300;-55
2022/05/27 04:20:50;;;;;;;2.90;2.53;;;16.80;99.90;;;-141.84;69.18;18753.09;5073391;28;20283;-56
2022/05/27 04:23:18;;;;;;;3.78;2.67;;;16.80;99.90;;;-141.84;69.22;18759.19;5073076;28;20247;-54
2022/05/27 04:25:50;;;;;;;3.58;2.53;;;16.70;99.90;;;-141.84;70.69;18749.03;5072925;28;20668;-55
2022/05/27 04:28:19;;;;;;;3.40;2.38;;;16.70;99.90;;;-141.84;72.07;18720.59;5073373;28;20188;-54
2022/05/27 04:30:46;;;;;;;2.50;2.30;;;16.70;99.90;;;-141.84;73.65;18706.38;5073217;28;20677;-56
2022/05/27 04:33:15;;;;;;;4.32;2.58;;;16.60;99.90;;;-141.84;75.54;18619.00;5072818;28;20296;-56
2022/05/27 04:35:43;;;;;;;4.32;2.50;;;16.60;99.90;;;-141.84;77.05;18598.69;5073382;28;20208;-55
2022/05/27 04:38:11;;;;;;;3.83;2.75;;;16.50;99.90;;;-141.84;78.78;18582.44;5072731;28;20292;-55
2022/05/27 04:40:39;;;;;;;3.20;2.90;;;16.50;99.90;;;-141.84;79.90;18539.75;5072963;28;20577;-54
2022/05/27 04:43:09;;;;;;;3.42;2.85;;;16.40;99.90;;;-141.84;80.39;18543.81;5073310;28;20201;-54
2022/05/27 04:45:38;;;;;;;5.78;3.08;;;16.30;99.90;;;-141.84;79.15;18574.28;5072784;28;20181;-55
2022/05/27 04:48:07;;;;;;;5.13;3.40;;;16.30;99.90;;;-141.84;78.15;18592.59;5072772;28;20197;-52
2022/05/27 04:50:35;;;;;;;4.65;2.78;;;16.40;99.90;;;-141.84;79.44;18560.06;5072787;28;20321;-54
2022/05/27 04:53:04;;;;;;;5.68;3.17;;;16.40;99.90;;;-141.84;79.45;18580.41;5072566;28;20301;-55
2022/05/27 04:55:35;;;;;;;5.57;3.50;;;16.30;99.90;;;-141.84;80.78;18511.31;5072682;28;20288;-53
2022/05/27 04:58:03;;;;;;;4.30;3.42;;;16.30;99.90;;;-141.84;82.19;18517.41;5072829;28;20193;-55
2022/05/27 05:00:38;;;;;;;4.65;3.60;;;16.30;99.90;;;-141.84;80.62;18578.38;5072509;28;20204;-55
2022/05/27 05:03:06;;;;;;;4.57;3.20;;;16.30;99.90;;;-141.84;80.94;18547.88;5072252;28;20196;-54
2022/05/27 05:05:36;;;;;;;6.43;3.40;;;16.30;99.90;;;-141.84;82.03;18486.94;5072235;28;20204;-55
2022/05/27 05:08:08;;;;;;;4.68;3.35;;;16.10;99.90;;;-141.84;84.67;18428.03;5072779;28;20215;-55
2022/05/27 05:10:36;;;;;;;5.05;3.60;;;16.10;99.90;;;-141.84;84.76;18440.22;5072426;28;20276;-54
2022/05/27 05:13:04;;;;;;;4.65;3.50;;;16.10;99.90;;;-141.84;86.02;18395.50;5072138;28;20292;-54
2022/05/27 05:15:34;;;;;;;5.30;3.28;;;16.00;99.90;;;-141.84;88.13;18352.84;5072732;28;20210;-53
2022/05/27 05:18:02;;;;;;;5.55;3.58;;;15.80;99.90;;;-141.84;89.16;18338.63;5072286;28;20295;-56
2022/05/27 05:20:33;;;;;;;6.78;4.10;;;15.80;99.90;;;-141.84;90.87;18312.22;5072077;28;20201;-54
2022/05/27 05:23:01;;;;;;;6.93;3.97;;;15.70;99.90;;;-141.84;91.72;18298.00;5072445;28;20216;-53
2022/05/27 05:25:30;;;;;;;6.50;3.78;;;15.60;99.90;;;-141.84;93.59;18269.56;5072870;28;20698;-57
2022/05/27 05:27:58;;;;;;;6.73;4.77;;;15.60;99.90;;;-141.84;95.31;18210.63;5073208;28;20292;-54
2022/05/27 05:30:27;;;;;;;6.60;4.07;;;15.50;99.90;;;-141.84;95.65;18167.97;5073077;28;20227;-57
2022/05/27 05:32:56;;;;;;;7.17;4.70;;;15.40;99.90;;;-141.84;96.80;18127.34;5072476;28;20235;-57
2022/05/27 05:35:25;;;;;;;7.43;4.50;;;15.40;99.90;;;-141.84;96.65;18090.78;5072497;28;20646;-54
2022/05/27 05:37:53;;;;;;;7.67;4.40;;;15.30;99.90;;;-141.84;96.74;18062.34;5072906;28;20200;-54
2022/05/27 05:40:21;;;;;;;5.37;4.17;;;15.40;99.90;;;-141.84;96.13;18009.53;5072374;28;20636;-57
2022/05/27 05:42:50;;;;;;;6.67;4.60;;;15.30;99.90;;;-141.84;97.55;17938.44;5072654;28;20295;-53
2022/05/27 05:45:20;;;;;;;5.25;4.25;;;15.30;99.90;;;-141.84;97.64;17810.44;5072665;28;20676;-55
2022/05/27 05:47:48;;;;;;;6.75;4.65;;;15.30;99.90;;;-141.84;97.65;17743.41;5072230;28;20212;-55
2022/05/27 05:50:18;;;;;;;5.00;4.27;;;15.20;99.90;;;-141.84;98.01;17649.97;5072027;28;20567;-56
2022/05/27 05:52:47;;;;;;;5.27;4.43;;;15.20;99.90;;;-141.84;97.41;17578.88;5072290;28;20224;-57
2022/05/27 05:55:18;;;;;;;6.20;5.03;;;15.20;99.90;;;-141.84;98.93;17457.03;5072071;28;20291;-57
2022/05/27 05:57:49;;;;;;;5.03;4.13;;;15.20;99.90;;;-141.84;97.73;17448.91;5072137;28;20563;-56
2022/05/27 06:00:22;;;;;;;6.00;4.20;;;15.20;99.90;;;-141.84;98.18;17408.28;5072307;28;20219;-55
2022/05/27 06:02:50;;;;;;;5.77;4.87;;;15.20;99.90;;;-141.84;99.43;17375.78;5071918;28;20283;-55
2022/05/27 06:05:21;;;;;;;5.53;4.90;;;15.20;99.90;;;-141.84;98.83;17373.75;5072018;28;20211;-53
2022/05/27 06:07:49;;;;;;;5.40;4.00;;;15.20;99.90;;;-141.84;98.93;17347.34;5072138;28;20209;-55
2022/05/27 06:10:20;;;;;;;5.18;3.90;;;15.10;99.90;;;-141.84;98.78;17341.25;5071681;28;20262;-53
2022/05/27 06:12:48;;;;;;;7.07;4.37;;;15.20;99.90;;;-141.84;99.58;17304.69;5071539;28;20225;-51
2022/05/27 06:15:23;;;;;;;5.30;4.00;;;15.10;99.90;;;-141.84;99.72;17266.09;5072211;28;20267;-50
2022/05/27 06:17:51;;;;;;;5.60;3.20;;;15.10;99.90;;;-141.84;99.83;17243.75;5071971;28;20303;-54
2022/05/27 06:20:21;;;;;;;3.30;2.13;;;15.00;99.90;;;-141.84;97.21;17245.78;5072017;28;20292;-55
2022/05/27 06:22:49;;;;;;;1.40;1.30;;;14.80;99.90;;;-141.84;97.70;17243.75;5072029;28;20218;-54
2022/05/27 06:25:23;;;;;;;1.17;1.07;;;14.50;99.90;;;-141.84;98.05;17201.09;5072143;28;20216;-55
2022/05/27 06:27:51;;;;;;;3.00;1.10;;;14.30;99.90;;;-141.84;98.03;17201.09;5071672;28;20291;-56
2022/05/27 06:36:06;;;;;;;3.40;1.10;;;13.90;99.90;;;-141.84;98.25;17152.34;5029025;28;20574;-56
2022/05/27 06:38:37;;;;;;;2.70;1.10;;;13.90;99.90;;;-141.84;99.65;17113.78;5029482;28;20202;-55
2022/05/27 06:41:05;;;;;;;4.10;1.40;;;13.80;99.90;;;-141.84;99.18;17144.25;5047906;28;20680;-54
2022/05/27 06:43:33;;;;;;;1.60;1.37;;;13.70;99.90;;;-141.84;99.97;17079.25;5071208;28;20228;-57
2022/05/27 06:46:03;;;;;;;1.33;1.23;;;13.80;99.90;;;-141.84;99.66;17101.59;5070985;28;20193;-56
2022/05/27 06:48:31;;;;;;;1.67;1.23;;;13.70;99.90;;;-141.84;100.00;17130.03;5070923;28;20197;-55
2022/05/27 06:51:07;;;;;;;1.20;1.00;;;13.80;99.90;;;-141.84;97.68;17174.69;5071149;28;20189;-56
2022/05/27 06:53:35;;;;;;;0.93;0.93;;;13.80;99.90;;;-141.84;97.18;17188.91;5071008;28;20228;-54
2022/05/27 06:56:04;;;;;;;1.87;1.10;;;13.80;99.90;;;-141.84;96.44;17201.09;5071226;28;20250;-54
2022/05/27 06:58:32;;;;;;;2.23;1.10;;;13.90;99.90;;;-141.84;95.92;17215.31;5071047;28;20224;-55
2022/05/27 07:01:01;;;;;;;1.13;1.10;;;14.00;99.90;;;-141.84;95.77;17184.84;5071059;28;20235;-54
2022/05/27 07:03:29;;;;;;;1.30;1.07;;;14.00;99.90;;;-141.84;96.31;17152.34;5070760;28;20212;-56
2022/05/27 07:06:00;;;;;;;1.47;0.90;;;14.10;99.90;;;-141.84;95.42;17247.81;5069193;28;20189;-55
2022/05/27 07:08:29;;;;;;;1.77;1.20;;;14.20;99.90;;;-141.84;93.17;17322.97;5071472;28;20287;-57
2022/05/27 07:10:58;;;;;;;1.87;1.23;;;14.10;99.90;;;-141.84;93.89;17292.50;5071502;28;20211;-54
2022/05/27 07:13:26;;;;;;;1.23;1.13;;;14.20;99.90;;;-141.84;91.79;17406.25;5071626;28;20303;-56
2022/05/27 07:15:54;;;;;;;2.17;1.10;;;14.30;99.90;;;-141.84;90.87;17481.38;5068876;28;20708;-57
2022/05/27 07:18:23;;;;;;;1.33;0.97;;;14.30;99.90;;;-141.84;88.68;17576.84;5071209;28;20220;-55
2022/05/27 07:20:51;;;;;;;1.30;0.93;;;14.30;99.90;;;-141.84;90.32;17526.06;5071798;28;20215;-55
2022/05/27 07:23:19;;;;;;;1.10;1.00;;;14.40;99.90;;;-141.84;90.14;17534.19;5071426;28;20189;-56
2022/05/27 07:25:48;;;;;;;1.97;1.10;;;14.50;99.90;;;-141.84;89.16;17552.47;5070220;28;20757;-56
2022/05/27 07:28:16;;;;;;;2.80;1.10;;;14.50;99.90;;;-141.84;88.94;17578.88;5071077;28;20196;-55
2022/05/27 07:30:44;;;;;;;1.60;1.10;;;14.60;99.90;;;-141.84;86.92;17735.28;5071273;28;20296;-60
2022/05/27 07:33:13;;;;;;;1.27;1.17;;;14.60;99.90;;;-141.84;89.25;17599.19;5070882;28;20314;-56
2022/05/27 07:35:41;;;;;;;1.23;1.13;;;14.70;99.90;;;-141.84;88.11;17668.25;5070731;28;20200;-55
2022/05/27 07:38:09;;;;;;;4.27;1.50;;;14.80;99.90;;;-141.84;88.42;17680.44;5064490;28;20224;-55
2022/05/27 07:40:37;;;;;;;1.30;1.20;;;15.00;99.90;;;-141.84;87.88;17741.38;5055876;28;20304;-57
2022/05/27 07:43:09;;;;;;;1.97;1.17;;;15.10;99.90;;;-141.84;85.93;17875.44;5051842;28;20204;-55
2022/05/27 07:45:40;;;;;;;2.60;1.40;;;15.30;99.90;;;-141.84;82.16;18076.56;5060309;28;20192;-56
2022/05/27 07:48:10;;;;;;;1.67;0.93;;;15.40;99.90;;;-141.84;81.89;18157.81;5071602;28;20280;-54
2022/05/27 07:50:40;;;;;;;3.23;1.20;;;15.70;99.90;;;-141.84;79.98;18220.78;5070487;28;20657;-56
2022/05/27 07:53:08;;;;;;;2.55;1.35;;;15.90;99.90;;;-141.84;79.04;18314.25;5069905;28;20221;-52
2022/05/27 07:55:36;;;;;;;1.90;1.10;;;16.10;99.90;;;-141.84;80.16;18314.25;5070192;28;20293;-51
2022/05/27 07:58:06;;;;;;;2.60;1.38;;;16.30;99.90;;;-141.84;79.06;18318.31;5071481;28;20200;-55
2022/05/27 08:00:37;;;;;;;3.00;1.40;;;16.40;99.90;;;-141.84;79.29;18334.56;5071737;28;20197;-56
2022/05/27 08:03:11;;;;;;;1.63;1.52;;;16.50;99.90;;;-141.84;76.39;18413.78;5071608;28;20644;-53
2022/05/27 08:05:40;;;;;;;3.58;2.10;;;16.60;99.90;;;-141.84;77.12;18415.81;5071600;28;20209;-56
2022/05/27 08:08:08;;;;;;;2.40;2.20;;;16.50;99.90;;;-141.84;79.29;18314.25;5071690;28;20228;-52
2022/05/27 08:10:40;;;;;;;3.83;3.50;;;16.50;99.90;;;-141.84;79.42;18314.25;5071616;28;20302;-55
2022/05/27 08:13:10;;;;;;;3.35;2.58;;;16.60;99.90;;;-141.84;77.04;18409.72;5070935;28;20307;-55
2022/05/27 08:15:39;;;;;;;4.65;2.53;;;16.60;99.90;;;-141.84;75.66;18423.94;5071128;28;20201;-52
2022/05/27 08:18:07;;;;;;;3.13;2.17;;;16.60;99.90;;;-141.84;75.95;18411.75;5071701;28;20288;-54
2022/05/27 08:20:38;;;;;;;2.63;2.13;;;16.60;99.90;;;-141.84;74.36;18493.03;5073339;28;20236;-57
2022/05/27 08:23:07;;;;;;;2.40;2.20;;;16.80;99.90;;;-141.84;74.73;18476.78;5074522;28;20650;-55
2022/05/27 08:25:38;;;;;;;2.88;2.30;;;16.80;99.90;;;-141.84;74.46;18517.41;5074418;28;20196;-54
2022/05/27 08:28:09;;;;;;;2.90;2.05;;;16.80;99.90;;;-141.84;72.80;18541.78;5074613;28;20204;-58
2022/05/27 08:30:40;;;;;;;3.22;2.38;;;16.80;99.90;;;-141.84;74.45;18486.94;5074919;28;20224;-52
2022/05/27 08:33:09;;;;;;;3.25;2.53;;;16.70;99.90;;;-141.84;75.72;18460.53;5073193;28;20827;-55
2022/05/27 08:38:29;;;;;;;2.70;2.25;;;16.70;99.90;;;-141.84;75.19;18513.34;5073695;28;20196;-56
2022/05/27 08:41:32;;;;;;;2.60;2.40;;;16.90;99.90;;;-141.84;72.54;18570.22;5073362;28;20648;-59
2022/05/27 08:44:18;;;;;;;3.35;1.80;;;17.10;99.90;;;-141.84;69.75;18647.44;5073685;28;20195;-53
2022/05/27 08:47:02;;;;;;;1.98;1.67;;;17.40;99.90;;;-141.84;67.58;18759.19;5073309;28;20189;-54
2022/05/27 08:49:36;;;;;;;3.13;1.58;;;17.60;99.90;;;-141.84;65.57;18816.06;5073587;28;20305;-55
2022/05/27 08:52:15;;;;;;;5.10;1.40;;;17.90;99.90;;;-141.84;67.02;18763.25;5073166;28;20625;-58
2022/05/27 08:54:51;;;;;;;5.10;2.13;;;17.80;99.90;;;-141.84;68.11;18793.72;5073366;28;20212;-55
2022/05/27 09:00:15;;;;;;;1.88;1.30;;;17.90;99.90;;;-141.84;66.89;18795.75;5073044;28;20219;-56
2022/05/27 09:02:55;;;;;;;1.45;1.15;;;17.80;99.90;;;-141.84;66.30;18773.41;5073325;28;20616;-56
2022/05/27 09:05:30;;;;;;;1.98;1.30;;;17.60;99.90;;;-141.84;71.94;18647.44;5073098;28;20231;-53
2022/05/27 09:08:03;;;;;;;1.52;1.25;;;17.40;99.90;;;-141.84;72.76;18598.69;5073078;28;20254;-53
2022/05/27 09:10:48;;;;;;;1.85;1.48;;;17.40;99.90;;;-141.84;76.28;18537.72;5073090;28;20281;-54
2022/05/27 09:13:22;;;;;;;2.45;1.83;;;17.30;99.90;;;-141.84;76.17;18525.53;5072816;28;20219;-53
2022/05/27 09:16:02;;;;;;;2.65;1.77;;;17.00;99.90;;;-141.84;78.90;18476.78;5072601;28;20704;-55
2022/05/27 09:18:41;;;;;;;1.60;1.50;;;16.80;99.90;;;-141.84;79.88;18428.03;5072928;28;20649;-53
2022/05/27 09:21:29;;;;;;;2.40;1.90;;;17.00;99.90;;;-141.84;77.23;18480.84;5071865;28;20197;-52
2022/05/27 09:24:24;;;;;;;2.30;2.10;;;17.30;99.90;;;-141.84;75.61;18533.66;5072727;28;20239;-52
2022/05/27 09:27:03;;;;;;;2.58;1.90;;;17.40;99.90;;;-141.84;72.46;18637.28;5069800;28;20235;-54
2022/05/27 09:29:52;;;;;;;2.08;1.70;;;17.60;99.90;;;-141.84;74.23;18590.56;5072972;28;20184;-54
2022/05/27 09:32:34;;;;;;;3.00;1.67;;;17.80;99.90;;;-141.84;73.22;18639.31;5072012;28;20227;-55
2022/05/27 09:35:08;;;;;;;2.70;2.10;;;17.70;99.90;;;-141.84;75.10;18621.03;5071667;28;20628;-53
2022/05/27 09:38:01;;;;;;;3.50;1.85;;;17.60;99.90;;;-141.84;74.77;18621.03;5069485;28;20657;-49
2022/05/27 09:40:39;;;;;;;2.13;1.92;;;17.80;99.90;;;-141.84;72.63;18633.22;5072162;28;20250;-54
2022/05/27 09:43:19;;;;;;;2.35;2.15;;;17.70;99.90;;;-141.84;72.74;18647.44;5072652;28;20195;-54
2022/05/27 09:45:52;;;;;;;2.10;1.90;;;17.60;99.90;;;-141.84;72.42;18643.38;5072328;28;20298;-53
2022/05/27 09:48:21;;;;;;;3.33;3.03;;;17.80;99.90;;;-141.84;75.32;18631.19;5072679;28;20294;-54
2022/05/27 09:50:50;;;;;;;2.70;2.50;;;17.80;99.90;;;-141.84;73.87;18602.75;5072351;28;20684;-56
2022/05/27 09:53:23;;;;;;;2.50;2.10;;;17.80;99.90;;;-141.84;72.34;18641.34;5071900;28;20715;-56
2022/05/27 09:55:57;;;;;;;2.20;2.00;;;18.00;99.90;;;-141.84;72.36;18637.28;5072395;28;20185;-55
2022/05/27 09:58:29;;;;;;;3.20;2.00;;;17.90;99.90;;;-141.84;71.32;18655.56;5072336;28;20193;-55
2022/05/27 10:00:57;;;;;;;2.38;2.17;;;17.90;99.90;;;-141.84;72.38;18641.34;5071834;28;20211;-55
2022/05/27 10:03:33;;;;;;;3.28;2.50;;;17.90;99.90;;;-141.84;73.22;18625.09;5071968;28;20239;-54
2022/05/27 10:06:08;;;;;;;3.70;2.15;;;17.80;99.90;;;-141.84;73.36;18600.72;5072029;28;20189;-53
2022/05/27 10:08:43;;;;;;;2.80;1.90;;;17.60;99.90;;;-141.84;70.70;18698.22;5072052;28;20262;-54
2022/05/27 10:11:25;;;;;;;4.55;2.20;;;17.70;99.90;;;-141.84;71.25;18692.13;5071672;28;20622;-56
2022/05/27 10:14:23;;;;;;;2.40;2.08;;;17.80;99.90;;;-141.84;72.65;18631.19;5071041;28;20254;-54
2022/05/27 10:17:09;;;;;;;2.17;1.98;;;17.70;99.90;;;-141.84;75.14;18584.47;5070968;28;20405;-57
2022/05/27 10:19:46;;;;;;;2.30;2.10;;;17.60;99.90;;;-141.84;75.82;18517.41;5069066;28;20188;-53
2022/05/27 10:22:28;;;;;;;2.00;1.88;;;17.60;99.90;;;-141.84;72.76;18590.56;5071797;28;20220;-53
2022/05/27 10:25:00;;;;;;;3.20;1.77;;;17.50;99.90;;;-141.84;71.28;18627.13;5071192;28;20209;-54
2022/05/27 10:27:36;;;;;;;3.08;1.85;;;17.40;99.90;;;-141.84;72.64;18578.38;5071517;28;20288;-55
2022/05/27 10:30:09;;;;;;;2.10;1.88;;;17.40;99.90;;;-141.84;72.81;18596.66;5069983;28;20326;-54
2022/05/27 10:32:44;;;;;;;2.28;1.90;;;17.30;99.90;;;-141.84;69.99;18684.00;5071710;28;20188;-55
2022/05/27 10:35:33;;;;;;;2.47;1.88;;;17.50;99.90;;;-141.84;69.13;18659.63;5070122;28;20309;-53
2022/05/27 10:38:23;;;;;;;3.13;1.88;;;17.50;99.90;;;-141.84;70.41;18598.69;5069428;28;20197;-54
2022/05/27 10:41:02;;;;;;;4.10;1.92;;;17.30;99.90;;;-141.84;71.35;18574.28;5069584;28;20327;-52
2022/05/27 10:43:55;;;;;;;3.80;1.92;;;17.00;99.90;;;-141.84;73.04;18582.44;5069193;28;20191;-53
2022/05/27 10:46:30;;;;;;;2.38;2.17;;;16.90;99.90;;;-141.84;70.22;18631.19;5069170;28;20268;-55
2022/05/27 10:49:23;;;;;;;2.53;1.90;;;17.00;99.90;;;-141.84;70.99;18629.16;5071432;28;20203;-53
2022/05/27 10:52:18;;;;;;;2.40;2.00;;;17.00;99.90;;;-141.84;71.20;18596.66;5069246;28;20283;-50